sensor_id;sensor_type;location;lat;lon;timestamp;P1;durP1;ratioP1;P2;durP2;ratioP2
42296;SDS011;28985;47.456;19.016;2022-11-04T00:02:07;76.25;;;71.80;;
42296;SDS011;28985;47.456;19.016;2022-11-04T00:04:33;71.90;;;68.25;;
42296;SDS011;28985;47.456;19.016;2022-11-04T00:07:00;72.60;;;68.10;;
42296;SDS011;28985;47.456;19.016;2022-11-04T00:09:27;71.88;;;68.10;;
42296;SDS011;28985;47.456;19.016;2022-11-04T00:11:55;74.10;;;69.88;;
42296;SDS011;28985;47.456;19.016;2022-11-04T00:14:41;71.75;;;67.80;;
42296;SDS011;28985;47.456;19.016;2022-11-04T00:17:11;71.00;;;66.95;;
42296;SDS011;28985;47.456;19.016;2022-11-04T00:19:51;72.40;;;68.22;;
42296;SDS011;28985;47.456;19.016;2022-11-04T00:22:41;71.65;;;67.65;;
42296;SDS011;28985;47.456;19.016;2022-11-04T00:25:26;74.40;;;70.40;;
42296;SDS011;28985;47.456;19.016;2022-11-04T00:28:13;69.35;;;65.72;;
42296;SDS011;28985;47.456;19.016;2022-11-04T00:31:00;68.47;;;64.60;;
42296;SDS011;28985;47.456;19.016;2022-11-04T00:33:48;70.55;;;66.82;;
42296;SDS011;28985;47.456;19.016;2022-11-04T00:36:16;71.38;;;67.57;;
42296;SDS011;28985;47.456;19.016;2022-11-04T00:38:43;72.28;;;68.13;;
42296;SDS011;28985;47.456;19.016;2022-11-04T00:41:10;71.68;;;67.78;;
42296;SDS011;28985;47.456;19.016;2022-11-04T00:43:53;70.93;;;67.32;;
42296;SDS011;28985;47.456;19.016;2022-11-04T00:46:24;71.57;;;67.68;;
42296;SDS011;28985;47.456;19.016;2022-11-04T00:48:52;72.72;;;68.60;;
42296;SDS011;28985;47.456;19.016;2022-11-04T00:51:18;72.40;;;68.53;;
42296;SDS011;28985;47.456;19.016;2022-11-04T00:53:46;71.63;;;67.95;;
42296;SDS011;28985;47.456;19.016;2022-11-04T00:56:13;68.60;;;65.00;;
42296;SDS011;28985;47.456;19.016;2022-11-04T00:58:40;69.22;;;65.72;;
42296;SDS011;28985;47.456;19.016;2022-11-04T01:01:07;70.43;;;66.82;;
42296;SDS011;28985;47.456;19.016;2022-11-04T01:03:38;71.78;;;68.35;;
42296;SDS011;28985;47.456;19.016;2022-11-04T01:06:05;72.13;;;68.47;;
42296;SDS011;28985;47.456;19.016;2022-11-04T01:08:31;72.10;;;68.30;;
42296;SDS011;28985;47.456;19.016;2022-11-04T01:11:04;70.53;;;66.72;;
42296;SDS011;28985;47.456;19.016;2022-11-04T01:13:32;67.82;;;64.10;;
42296;SDS011;28985;47.456;19.016;2022-11-04T01:16:00;69.78;;;66.28;;
42296;SDS011;28985;47.456;19.016;2022-11-04T01:18:28;69.85;;;66.05;;
42296;SDS011;28985;47.456;19.016;2022-11-04T01:20:58;70.13;;;66.55;;
42296;SDS011;28985;47.456;19.016;2022-11-04T01:23:26;72.07;;;68.20;;
42296;SDS011;28985;47.456;19.016;2022-11-04T01:25:52;71.10;;;67.28;;
42296;SDS011;28985;47.456;19.016;2022-11-04T01:28:19;72.95;;;69.25;;
42296;SDS011;28985;47.456;19.016;2022-11-04T01:30:45;71.93;;;68.07;;
42296;SDS011;28985;47.456;19.016;2022-11-04T01:33:12;71.60;;;68.05;;
42296;SDS011;28985;47.456;19.016;2022-11-04T01:35:39;72.43;;;68.50;;
42296;SDS011;28985;47.456;19.016;2022-11-04T01:38:05;75.05;;;70.47;;
42296;SDS011;28985;47.456;19.016;2022-11-04T01:40:39;75.28;;;71.32;;
42296;SDS011;28985;47.456;19.016;2022-11-04T01:49:08;67.00;;;63.63;;
42296;SDS011;28985;47.456;19.016;2022-11-04T01:51:39;70.65;;;66.70;;
42296;SDS011;28985;47.456;19.016;2022-11-04T01:54:08;68.18;;;64.57;;
42296;SDS011;28985;47.456;19.016;2022-11-04T01:56:36;69.32;;;65.50;;
42296;SDS011;28985;47.456;19.016;2022-11-04T01:59:06;74.80;;;70.45;;
42296;SDS011;28985;47.456;19.016;2022-11-04T02:01:36;75.10;;;70.57;;
42296;SDS011;28985;47.456;19.016;2022-11-04T02:04:03;72.00;;;68.18;;
42296;SDS011;28985;47.456;19.016;2022-11-04T02:06:49;70.68;;;66.57;;
42296;SDS011;28985;47.456;19.016;2022-11-04T02:09:18;70.75;;;66.05;;
42296;SDS011;28985;47.456;19.016;2022-11-04T02:11:46;73.97;;;69.65;;
42296;SDS011;28985;47.456;19.016;2022-11-04T02:14:31;70.93;;;66.72;;
42296;SDS011;28985;47.456;19.016;2022-11-04T02:17:10;73.72;;;69.47;;
42296;SDS011;28985;47.456;19.016;2022-11-04T02:20:06;66.57;;;62.97;;
42296;SDS011;28985;47.456;19.016;2022-11-04T02:28:38;67.07;;;63.13;;
42296;SDS011;28985;47.456;19.016;2022-11-04T02:34:12;69.30;;;65.28;;
42296;SDS011;28985;47.456;19.016;2022-11-04T02:39:21;69.50;;;65.43;;
42296;SDS011;28985;47.456;19.016;2022-11-04T02:42:03;68.68;;;64.82;;
42296;SDS011;28985;47.456;19.016;2022-11-04T02:45:02;66.72;;;62.38;;
42296;SDS011;28985;47.456;19.016;2022-11-04T02:47:44;66.05;;;62.38;;
42296;SDS011;28985;47.456;19.016;2022-11-04T02:50:39;66.72;;;62.63;;
42296;SDS011;28985;47.456;19.016;2022-11-04T02:53:14;65.47;;;61.85;;
42296;SDS011;28985;47.456;19.016;2022-11-04T02:55:50;64.97;;;61.25;;
42296;SDS011;28985;47.456;19.016;2022-11-04T02:58:25;65.43;;;61.53;;
42296;SDS011;28985;47.456;19.016;2022-11-04T03:01:06;65.50;;;61.33;;
42296;SDS011;28985;47.456;19.016;2022-11-04T03:03:39;66.95;;;62.78;;
42296;SDS011;28985;47.456;19.016;2022-11-04T03:06:11;65.70;;;61.92;;
42296;SDS011;28985;47.456;19.016;2022-11-04T03:08:43;62.83;;;59.03;;
42296;SDS011;28985;47.456;19.016;2022-11-04T03:11:14;64.78;;;61.20;;
42296;SDS011;28985;47.456;19.016;2022-11-04T03:13:45;68.63;;;64.63;;
42296;SDS011;28985;47.456;19.016;2022-11-04T03:16:16;65.55;;;61.08;;
42296;SDS011;28985;47.456;19.016;2022-11-04T03:19:50;64.03;;;60.05;;
42296;SDS011;28985;47.456;19.016;2022-11-04T03:21:44;63.67;;;59.55;;
42296;SDS011;28985;47.456;19.016;2022-11-04T03:24:20;68.63;;;64.28;;
42296;SDS011;28985;47.456;19.016;2022-11-04T03:29:58;61.40;;;57.53;;
42296;SDS011;28985;47.456;19.016;2022-11-04T03:34:58;66.25;;;62.15;;
42296;SDS011;28985;47.456;19.016;2022-11-04T03:37:25;67.43;;;63.53;;
42296;SDS011;28985;47.456;19.016;2022-11-04T03:39:51;65.60;;;61.65;;
42296;SDS011;28985;47.456;19.016;2022-11-04T03:42:18;62.10;;;58.58;;
42296;SDS011;28985;47.456;19.016;2022-11-04T03:44:53;65.75;;;61.97;;
42296;SDS011;28985;47.456;19.016;2022-11-04T03:47:23;62.00;;;58.33;;
42296;SDS011;28985;47.456;19.016;2022-11-04T03:49:52;63.47;;;59.80;;
42296;SDS011;28985;47.456;19.016;2022-11-04T03:52:26;64.47;;;60.70;;
42296;SDS011;28985;47.456;19.016;2022-11-04T03:54:52;61.22;;;57.30;;
42296;SDS011;28985;47.456;19.016;2022-11-04T03:57:43;63.78;;;59.60;;
42296;SDS011;28985;47.456;19.016;2022-11-04T04:00:20;59.97;;;55.60;;
42296;SDS011;28985;47.456;19.016;2022-11-04T04:05:28;63.92;;;59.80;;
42296;SDS011;28985;47.456;19.016;2022-11-04T04:10:41;60.47;;;56.20;;
42296;SDS011;28985;47.456;19.016;2022-11-04T04:13:34;60.50;;;56.72;;
42296;SDS011;28985;47.456;19.016;2022-11-04T04:19:00;60.83;;;56.28;;
42296;SDS011;28985;47.456;19.016;2022-11-04T04:21:34;57.72;;;53.88;;
42296;SDS011;28985;47.456;19.016;2022-11-04T04:24:07;58.28;;;54.55;;
42296;SDS011;28985;47.456;19.016;2022-11-04T04:26:56;56.60;;;52.65;;
42296;SDS011;28985;47.456;19.016;2022-11-04T04:29:43;55.45;;;52.00;;
42296;SDS011;28985;47.456;19.016;2022-11-04T04:32:11;61.28;;;57.00;;
42296;SDS011;28985;47.456;19.016;2022-11-04T04:34:39;57.65;;;53.95;;
42296;SDS011;28985;47.456;19.016;2022-11-04T04:37:15;58.88;;;54.83;;
42296;SDS011;28985;47.456;19.016;2022-11-04T04:39:57;57.50;;;53.75;;
42296;SDS011;28985;47.456;19.016;2022-11-04T04:42:50;55.20;;;51.35;;
42296;SDS011;28985;47.456;19.016;2022-11-04T04:45:37;53.80;;;50.28;;
42296;SDS011;28985;47.456;19.016;2022-11-04T04:48:08;57.47;;;53.38;;
42296;SDS011;28985;47.456;19.016;2022-11-04T04:50:41;59.15;;;55.08;;
42296;SDS011;28985;47.456;19.016;2022-11-04T04:55:38;52.58;;;48.60;;
42296;SDS011;28985;47.456;19.016;2022-11-04T04:58:07;57.58;;;53.13;;
42296;SDS011;28985;47.456;19.016;2022-11-04T05:00:33;56.53;;;52.67;;
42296;SDS011;28985;47.456;19.016;2022-11-04T05:03:00;55.40;;;51.35;;
42296;SDS011;28985;47.456;19.016;2022-11-04T05:05:26;55.17;;;51.20;;
42296;SDS011;28985;47.456;19.016;2022-11-04T05:07:53;56.15;;;52.17;;
42296;SDS011;28985;47.456;19.016;2022-11-04T05:10:20;55.60;;;51.60;;
42296;SDS011;28985;47.456;19.016;2022-11-04T05:12:46;56.25;;;52.40;;
42296;SDS011;28985;47.456;19.016;2022-11-04T05:15:31;53.13;;;49.28;;
42296;SDS011;28985;47.456;19.016;2022-11-04T05:18:01;55.35;;;51.42;;
42296;SDS011;28985;47.456;19.016;2022-11-04T05:20:28;55.20;;;51.35;;
42296;SDS011;28985;47.456;19.016;2022-11-04T05:22:55;52.30;;;48.67;;
42296;SDS011;28985;47.456;19.016;2022-11-04T05:25:22;54.45;;;51.15;;
42296;SDS011;28985;47.456;19.016;2022-11-04T05:27:48;56.20;;;52.42;;
42296;SDS011;28985;47.456;19.016;2022-11-04T05:30:15;53.97;;;50.42;;
42296;SDS011;28985;47.456;19.016;2022-11-04T05:32:41;53.65;;;49.75;;
42296;SDS011;28985;47.456;19.016;2022-11-04T05:35:08;55.65;;;51.97;;
42296;SDS011;28985;47.456;19.016;2022-11-04T05:37:35;55.60;;;51.78;;
42296;SDS011;28985;47.456;19.016;2022-11-04T05:40:01;53.72;;;50.03;;
42296;SDS011;28985;47.456;19.016;2022-11-04T05:42:29;53.55;;;50.10;;
42296;SDS011;28985;47.456;19.016;2022-11-04T05:44:56;55.05;;;51.33;;
42296;SDS011;28985;47.456;19.016;2022-11-04T05:47:25;54.75;;;51.42;;
42296;SDS011;28985;47.456;19.016;2022-11-04T05:49:51;55.22;;;50.97;;
42296;SDS011;28985;47.456;19.016;2022-11-04T05:52:18;55.53;;;51.42;;
42296;SDS011;28985;47.456;19.016;2022-11-04T05:54:44;56.40;;;52.08;;
42296;SDS011;28985;47.456;19.016;2022-11-04T05:57:11;56.13;;;52.13;;
42296;SDS011;28985;47.456;19.016;2022-11-04T05:59:38;55.97;;;51.63;;
42296;SDS011;28985;47.456;19.016;2022-11-04T06:02:04;59.60;;;55.17;;
42296;SDS011;28985;47.456;19.016;2022-11-04T06:04:31;57.20;;;53.17;;
42296;SDS011;28985;47.456;19.016;2022-11-04T06:06:58;54.65;;;50.67;;
42296;SDS011;28985;47.456;19.016;2022-11-04T06:09:24;57.03;;;52.97;;
42296;SDS011;28985;47.456;19.016;2022-11-04T06:12:11;60.13;;;54.97;;
42296;SDS011;28985;47.456;19.016;2022-11-04T06:14:40;59.28;;;54.20;;
42296;SDS011;28985;47.456;19.016;2022-11-04T06:17:10;57.53;;;52.85;;
42296;SDS011;28985;47.456;19.016;2022-11-04T06:19:41;58.00;;;53.60;;
42296;SDS011;28985;47.456;19.016;2022-11-04T06:22:09;57.30;;;52.75;;
42296;SDS011;28985;47.456;19.016;2022-11-04T06:24:36;58.20;;;53.72;;
42296;SDS011;28985;47.456;19.016;2022-11-04T06:27:03;60.30;;;55.80;;
42296;SDS011;28985;47.456;19.016;2022-11-04T06:29:30;55.90;;;51.58;;
42296;SDS011;28985;47.456;19.016;2022-11-04T06:31:57;56.63;;;52.08;;
42296;SDS011;28985;47.456;19.016;2022-11-04T06:34:24;55.13;;;51.08;;
42296;SDS011;28985;47.456;19.016;2022-11-04T06:36:50;56.83;;;52.90;;
42296;SDS011;28985;47.456;19.016;2022-11-04T06:39:17;56.05;;;51.85;;
42296;SDS011;28985;47.456;19.016;2022-11-04T06:41:43;58.30;;;53.95;;
42296;SDS011;28985;47.456;19.016;2022-11-04T06:44:15;57.03;;;52.53;;
42296;SDS011;28985;47.456;19.016;2022-11-04T06:46:42;57.00;;;52.88;;
42296;SDS011;28985;47.456;19.016;2022-11-04T06:49:13;58.47;;;53.88;;
42296;SDS011;28985;47.456;19.016;2022-11-04T06:51:42;55.45;;;51.15;;
42296;SDS011;28985;47.456;19.016;2022-11-04T06:54:09;55.85;;;51.70;;
42296;SDS011;28985;47.456;19.016;2022-11-04T06:56:36;54.50;;;50.63;;
42296;SDS011;28985;47.456;19.016;2022-11-04T06:59:02;59.05;;;54.90;;
42296;SDS011;28985;47.456;19.016;2022-11-04T07:01:29;59.70;;;54.90;;
42296;SDS011;28985;47.456;19.016;2022-11-04T07:03:59;57.88;;;53.35;;
42296;SDS011;28985;47.456;19.016;2022-11-04T07:06:26;59.10;;;54.15;;
42296;SDS011;28985;47.456;19.016;2022-11-04T07:08:57;56.35;;;51.80;;
42296;SDS011;28985;47.456;19.016;2022-11-04T07:11:27;58.42;;;54.20;;
42296;SDS011;28985;47.456;19.016;2022-11-04T07:13:55;59.40;;;54.90;;
42296;SDS011;28985;47.456;19.016;2022-11-04T07:16:22;56.08;;;51.97;;
42296;SDS011;28985;47.456;19.016;2022-11-04T07:18:49;54.10;;;49.97;;
42296;SDS011;28985;47.456;19.016;2022-11-04T07:21:17;52.63;;;48.90;;
42296;SDS011;28985;47.456;19.016;2022-11-04T07:23:43;53.88;;;49.88;;
42296;SDS011;28985;47.456;19.016;2022-11-04T07:26:10;52.15;;;48.45;;
42296;SDS011;28985;47.456;19.016;2022-11-04T07:28:37;55.05;;;51.05;;
42296;SDS011;28985;47.456;19.016;2022-11-04T07:31:04;54.25;;;50.25;;
42296;SDS011;28985;47.456;19.016;2022-11-04T07:33:32;52.95;;;48.78;;
42296;SDS011;28985;47.456;19.016;2022-11-04T07:36:06;52.60;;;48.08;;
42296;SDS011;28985;47.456;19.016;2022-11-04T07:38:35;52.22;;;48.63;;
42296;SDS011;28985;47.456;19.016;2022-11-04T07:41:02;50.33;;;46.67;;
42296;SDS011;28985;47.456;19.016;2022-11-04T07:43:29;53.22;;;49.38;;
42296;SDS011;28985;47.456;19.016;2022-11-04T07:46:03;52.70;;;48.80;;
42296;SDS011;28985;47.456;19.016;2022-11-04T07:48:34;53.85;;;50.03;;
42296;SDS011;28985;47.456;19.016;2022-11-04T07:51:02;54.13;;;49.83;;
42296;SDS011;28985;47.456;19.016;2022-11-04T07:53:30;53.83;;;49.67;;
42296;SDS011;28985;47.456;19.016;2022-11-04T07:55:57;52.45;;;48.75;;
42296;SDS011;28985;47.456;19.016;2022-11-04T07:58:24;54.03;;;49.85;;
42296;SDS011;28985;47.456;19.016;2022-11-04T08:00:57;57.13;;;53.08;;
42296;SDS011;28985;47.456;19.016;2022-11-04T08:03:25;54.47;;;50.63;;
42296;SDS011;28985;47.456;19.016;2022-11-04T08:05:56;54.60;;;50.70;;
42296;SDS011;28985;47.456;19.016;2022-11-04T08:08:24;54.42;;;50.60;;
42296;SDS011;28985;47.456;19.016;2022-11-04T08:10:55;54.90;;;50.55;;
42296;SDS011;28985;47.456;19.016;2022-11-04T08:13:29;55.03;;;51.05;;
42296;SDS011;28985;47.456;19.016;2022-11-04T08:15:59;56.08;;;51.40;;
42296;SDS011;28985;47.456;19.016;2022-11-04T08:18:29;55.95;;;51.90;;
42296;SDS011;28985;47.456;19.016;2022-11-04T08:20:57;56.17;;;51.90;;
42296;SDS011;28985;47.456;19.016;2022-11-04T08:23:24;54.90;;;50.83;;
42296;SDS011;28985;47.456;19.016;2022-11-04T08:25:51;56.33;;;52.20;;
42296;SDS011;28985;47.456;19.016;2022-11-04T08:28:17;58.30;;;54.08;;
42296;SDS011;28985;47.456;19.016;2022-11-04T08:30:54;56.90;;;52.60;;
42296;SDS011;28985;47.456;19.016;2022-11-04T08:33:28;58.15;;;53.72;;
42296;SDS011;28985;47.456;19.016;2022-11-04T08:35:58;55.25;;;50.80;;
42296;SDS011;28985;47.456;19.016;2022-11-04T08:38:26;56.22;;;51.90;;
42296;SDS011;28985;47.456;19.016;2022-11-04T08:40:57;56.30;;;52.42;;
42296;SDS011;28985;47.456;19.016;2022-11-04T08:43:25;54.25;;;50.47;;
42296;SDS011;28985;47.456;19.016;2022-11-04T08:45:52;53.70;;;49.83;;
42296;SDS011;28985;47.456;19.016;2022-11-04T08:48:19;54.10;;;49.97;;
42296;SDS011;28985;47.456;19.016;2022-11-04T08:50:53;56.20;;;52.20;;
42296;SDS011;28985;47.456;19.016;2022-11-04T08:53:24;56.15;;;51.88;;
42296;SDS011;28985;47.456;19.016;2022-11-04T08:55:51;58.22;;;53.88;;
42296;SDS011;28985;47.456;19.016;2022-11-04T08:58:19;55.67;;;51.60;;
42296;SDS011;28985;47.456;19.016;2022-11-04T09:00:46;57.63;;;53.42;;
42296;SDS011;28985;47.456;19.016;2022-11-04T09:03:13;57.67;;;53.33;;
42296;SDS011;28985;47.456;19.016;2022-11-04T09:05:40;57.90;;;53.58;;
42296;SDS011;28985;47.456;19.016;2022-11-04T09:08:15;59.97;;;55.58;;
42296;SDS011;28985;47.456;19.016;2022-11-04T09:10:43;59.50;;;55.03;;
42296;SDS011;28985;47.456;19.016;2022-11-04T09:13:11;58.58;;;54.53;;
42296;SDS011;28985;47.456;19.016;2022-11-04T09:15:39;59.97;;;55.78;;
42296;SDS011;28985;47.456;19.016;2022-11-04T09:18:05;59.45;;;54.92;;
42296;SDS011;28985;47.456;19.016;2022-11-04T09:20:33;61.38;;;57.25;;
42296;SDS011;28985;47.456;19.016;2022-11-04T09:23:04;63.20;;;58.08;;
42296;SDS011;28985;47.456;19.016;2022-11-04T09:25:31;60.90;;;56.72;;
42296;SDS011;28985;47.456;19.016;2022-11-04T09:27:58;59.88;;;55.40;;
42296;SDS011;28985;47.456;19.016;2022-11-04T09:30:25;60.03;;;55.65;;
42296;SDS011;28985;47.456;19.016;2022-11-04T09:32:52;58.67;;;54.80;;
42296;SDS011;28985;47.456;19.016;2022-11-04T09:35:19;61.40;;;57.08;;
42296;SDS011;28985;47.456;19.016;2022-11-04T09:37:45;64.10;;;59.50;;
42296;SDS011;28985;47.456;19.016;2022-11-04T09:40:18;61.28;;;56.70;;
42296;SDS011;28985;47.456;19.016;2022-11-04T09:43:04;62.67;;;58.20;;
42296;SDS011;28985;47.456;19.016;2022-11-04T09:45:53;62.55;;;58.72;;
42296;SDS011;28985;47.456;19.016;2022-11-04T09:48:32;61.63;;;57.92;;
42296;SDS011;28985;47.456;19.016;2022-11-04T09:51:04;64.75;;;60.42;;
42296;SDS011;28985;47.456;19.016;2022-11-04T09:53:46;64.57;;;59.97;;
42296;SDS011;28985;47.456;19.016;2022-11-04T09:56:30;62.95;;;58.63;;
42296;SDS011;28985;47.456;19.016;2022-11-04T09:59:04;62.17;;;58.35;;
42296;SDS011;28985;47.456;19.016;2022-11-04T10:04:24;65.90;;;61.20;;
42296;SDS011;28985;47.456;19.016;2022-11-04T10:07:08;64.22;;;59.83;;
42296;SDS011;28985;47.456;19.016;2022-11-04T10:12:47;64.10;;;59.33;;
42296;SDS011;28985;47.456;19.016;2022-11-04T10:18:13;63.83;;;59.30;;
42296;SDS011;28985;47.456;19.016;2022-11-04T10:21:04;63.72;;;58.40;;
42296;SDS011;28985;47.456;19.016;2022-11-04T10:23:54;63.25;;;58.78;;
42296;SDS011;28985;47.456;19.016;2022-11-04T10:29:13;63.80;;;58.90;;
42296;SDS011;28985;47.456;19.016;2022-11-04T10:31:42;61.35;;;57.13;;
42296;SDS011;28985;47.456;19.016;2022-11-04T10:34:14;64.30;;;59.15;;
42296;SDS011;28985;47.456;19.016;2022-11-04T10:36:53;65.38;;;60.53;;
42296;SDS011;28985;47.456;19.016;2022-11-04T10:39:24;61.30;;;56.78;;
42296;SDS011;28985;47.456;19.016;2022-11-04T10:41:54;58.55;;;54.47;;
42296;SDS011;28985;47.456;19.016;2022-11-04T10:44:31;62.97;;;58.05;;
42296;SDS011;28985;47.456;19.016;2022-11-04T10:47:14;59.80;;;55.63;;
42296;SDS011;28985;47.456;19.016;2022-11-04T10:49:56;59.85;;;55.83;;
42296;SDS011;28985;47.456;19.016;2022-11-04T10:58:30;61.42;;;56.25;;
42296;SDS011;28985;47.456;19.016;2022-11-04T11:01:21;55.17;;;51.30;;
42296;SDS011;28985;47.456;19.016;2022-11-04T11:03:57;59.58;;;54.92;;
42296;SDS011;28985;47.456;19.016;2022-11-04T11:06:31;59.15;;;55.15;;
42296;SDS011;28985;47.456;19.016;2022-11-04T11:09:19;62.42;;;58.03;;
42296;SDS011;28985;47.456;19.016;2022-11-04T11:11:51;60.53;;;56.20;;
42296;SDS011;28985;47.456;19.016;2022-11-04T11:14:19;59.47;;;55.17;;
42296;SDS011;28985;47.456;19.016;2022-11-04T11:19:48;58.60;;;54.47;;
42296;SDS011;28985;47.456;19.016;2022-11-04T11:25:24;60.58;;;56.08;;
42296;SDS011;28985;47.456;19.016;2022-11-04T11:28:03;60.05;;;55.50;;
42296;SDS011;28985;47.456;19.016;2022-11-04T11:33:24;61.63;;;56.78;;
42296;SDS011;28985;47.456;19.016;2022-11-04T11:36:04;61.08;;;56.55;;
42296;SDS011;28985;47.456;19.016;2022-11-04T11:41:21;60.28;;;55.60;;
42296;SDS011;28985;47.456;19.016;2022-11-04T11:43:54;64.10;;;59.40;;
42296;SDS011;28985;47.456;19.016;2022-11-04T11:46:25;62.22;;;57.53;;
42296;SDS011;28985;47.456;19.016;2022-11-04T11:48:55;67.90;;;62.42;;
42296;SDS011;28985;47.456;19.016;2022-11-04T11:51:28;69.57;;;64.70;;
42296;SDS011;28985;47.456;19.016;2022-11-04T11:56:35;68.93;;;63.58;;
42296;SDS011;28985;47.456;19.016;2022-11-04T11:59:34;72.38;;;66.97;;
42296;SDS011;28985;47.456;19.016;2022-11-04T12:03:13;68.25;;;63.63;;
42296;SDS011;28985;47.456;19.016;2022-11-04T12:05:48;69.10;;;64.18;;
42296;SDS011;28985;47.456;19.016;2022-11-04T12:11:49;74.18;;;69.40;;
42296;SDS011;28985;47.456;19.016;2022-11-04T12:22:20;87.57;;;81.78;;
42296;SDS011;28985;47.456;19.016;2022-11-04T12:27:44;91.13;;;85.07;;
42296;SDS011;28985;47.456;19.016;2022-11-04T12:30:19;92.75;;;86.90;;
42296;SDS011;28985;47.456;19.016;2022-11-04T12:38:44;100.03;;;93.35;;
42296;SDS011;28985;47.456;19.016;2022-11-04T12:41:36;98.70;;;92.57;;
42296;SDS011;28985;47.456;19.016;2022-11-04T12:44:38;97.55;;;91.65;;
42296;SDS011;28985;47.456;19.016;2022-11-04T12:55:46;103.85;;;97.35;;
42296;SDS011;28985;47.456;19.016;2022-11-04T13:01:00;106.07;;;99.78;;
42296;SDS011;28985;47.456;19.016;2022-11-04T13:03:44;99.20;;;92.38;;
42296;SDS011;28985;47.456;19.016;2022-11-04T13:06:18;99.82;;;93.35;;
42296;SDS011;28985;47.456;19.016;2022-11-04T13:08:53;97.93;;;92.03;;
42296;SDS011;28985;47.456;19.016;2022-11-04T13:11:32;92.70;;;87.22;;
42296;SDS011;28985;47.456;19.016;2022-11-04T13:14:13;90.30;;;84.80;;
42296;SDS011;28985;47.456;19.016;2022-11-04T13:16:46;91.43;;;85.57;;
42296;SDS011;28985;47.456;19.016;2022-11-04T13:19:38;91.63;;;85.78;;
42296;SDS011;28985;47.456;19.016;2022-11-04T13:22:14;86.50;;;81.13;;
42296;SDS011;28985;47.456;19.016;2022-11-04T13:24:46;89.57;;;83.63;;
42296;SDS011;28985;47.456;19.016;2022-11-04T13:27:20;90.82;;;85.15;;
42296;SDS011;28985;47.456;19.016;2022-11-04T13:29:50;84.65;;;79.10;;
42296;SDS011;28985;47.456;19.016;2022-11-04T13:32:52;80.80;;;75.72;;
42296;SDS011;28985;47.456;19.016;2022-11-04T13:35:35;80.82;;;76.03;;
42296;SDS011;28985;47.456;19.016;2022-11-04T13:43:54;76.87;;;71.73;;
42296;SDS011;28985;47.456;19.016;2022-11-04T13:46:24;77.82;;;72.88;;
42296;SDS011;28985;47.456;19.016;2022-11-04T13:51:35;76.70;;;71.43;;
42296;SDS011;28985;47.456;19.016;2022-11-04T13:54:03;76.05;;;70.95;;
42296;SDS011;28985;47.456;19.016;2022-11-04T13:56:32;76.75;;;71.88;;
42296;SDS011;28985;47.456;19.016;2022-11-04T14:01:43;72.50;;;67.55;;
42296;SDS011;28985;47.456;19.016;2022-11-04T14:04:18;71.45;;;66.63;;
42296;SDS011;28985;47.456;19.016;2022-11-04T14:14:36;74.07;;;68.90;;
42296;SDS011;28985;47.456;19.016;2022-11-04T14:17:03;76.00;;;71.05;;
42296;SDS011;28985;47.456;19.016;2022-11-04T14:22:20;74.13;;;68.97;;
42296;SDS011;28985;47.456;19.016;2022-11-04T14:24:53;77.93;;;72.55;;
42296;SDS011;28985;47.456;19.016;2022-11-04T14:27:26;79.03;;;73.72;;
42296;SDS011;28985;47.456;19.016;2022-11-04T14:29:58;76.97;;;72.13;;
42296;SDS011;28985;47.456;19.016;2022-11-04T14:32:26;81.00;;;75.00;;
42296;SDS011;28985;47.456;19.016;2022-11-04T14:35:05;83.10;;;77.18;;
42296;SDS011;28985;47.456;19.016;2022-11-04T14:37:33;80.85;;;75.70;;
42296;SDS011;28985;47.456;19.016;2022-11-04T14:40:05;83.38;;;77.32;;
42296;SDS011;28985;47.456;19.016;2022-11-04T14:45:15;85.57;;;79.80;;
42296;SDS011;28985;47.456;19.016;2022-11-04T14:48:17;79.28;;;74.25;;
42296;SDS011;28985;47.456;19.016;2022-11-04T14:50:46;81.15;;;75.80;;
42296;SDS011;28985;47.456;19.016;2022-11-04T14:53:27;85.13;;;80.03;;
42296;SDS011;28985;47.456;19.016;2022-11-04T14:56:05;89.78;;;84.50;;
42296;SDS011;28985;47.456;19.016;2022-11-04T14:58:56;84.90;;;79.97;;
42296;SDS011;28985;47.456;19.016;2022-11-04T15:01:29;84.65;;;79.32;;
42296;SDS011;28985;47.456;19.016;2022-11-04T15:06:53;85.25;;;79.85;;
42296;SDS011;28985;47.456;19.016;2022-11-04T15:09:23;92.45;;;86.68;;
42296;SDS011;28985;47.456;19.016;2022-11-04T15:12:02;87.90;;;82.35;;
42296;SDS011;28985;47.456;19.016;2022-11-04T15:14:54;87.63;;;82.43;;
42296;SDS011;28985;47.456;19.016;2022-11-04T15:17:22;89.20;;;83.78;;
42296;SDS011;28985;47.456;19.016;2022-11-04T15:19:54;89.20;;;83.72;;
42296;SDS011;28985;47.456;19.016;2022-11-04T15:22:23;92.13;;;86.50;;
42296;SDS011;28985;47.456;19.016;2022-11-04T15:24:49;93.25;;;87.55;;
42296;SDS011;28985;47.456;19.016;2022-11-04T15:27:16;97.30;;;91.43;;
42296;SDS011;28985;47.456;19.016;2022-11-04T15:29:52;95.40;;;89.30;;
42296;SDS011;28985;47.456;19.016;2022-11-04T15:32:23;92.38;;;86.82;;
42296;SDS011;28985;47.456;19.016;2022-11-04T15:34:51;95.07;;;89.57;;
42296;SDS011;28985;47.456;19.016;2022-11-04T15:37:19;94.55;;;88.38;;
42296;SDS011;28985;47.456;19.016;2022-11-04T15:39:49;97.35;;;91.20;;
42296;SDS011;28985;47.456;19.016;2022-11-04T15:42:21;93.60;;;88.22;;
42296;SDS011;28985;47.456;19.016;2022-11-04T15:51:05;95.55;;;90.35;;
42296;SDS011;28985;47.456;19.016;2022-11-04T15:53:46;94.32;;;88.80;;
42296;SDS011;28985;47.456;19.016;2022-11-04T15:56:17;93.78;;;88.22;;
42296;SDS011;28985;47.456;19.016;2022-11-04T15:58:47;95.10;;;89.57;;
42296;SDS011;28985;47.456;19.016;2022-11-04T16:01:16;101.13;;;95.38;;
42296;SDS011;28985;47.456;19.016;2022-11-04T16:03:51;97.07;;;91.65;;
42296;SDS011;28985;47.456;19.016;2022-11-04T16:07:23;99.15;;;93.70;;
42296;SDS011;28985;47.456;19.016;2022-11-04T16:09:45;94.50;;;89.15;;
42296;SDS011;28985;47.456;19.016;2022-11-04T16:12:54;96.85;;;90.95;;
42296;SDS011;28985;47.456;19.016;2022-11-04T16:15:01;95.25;;;89.63;;
42296;SDS011;28985;47.456;19.016;2022-11-04T16:17:29;99.78;;;93.72;;
42296;SDS011;28985;47.456;19.016;2022-11-04T16:20:00;101.95;;;95.88;;
42296;SDS011;28985;47.456;19.016;2022-11-04T16:25:02;103.82;;;98.05;;
42296;SDS011;28985;47.456;19.016;2022-11-04T16:27:32;99.05;;;93.65;;
42296;SDS011;28985;47.456;19.016;2022-11-04T16:32:44;97.85;;;92.32;;
42296;SDS011;28985;47.456;19.016;2022-11-04T16:37:50;96.18;;;90.78;;
42296;SDS011;28985;47.456;19.016;2022-11-04T16:40:18;99.32;;;93.85;;
42296;SDS011;28985;47.456;19.016;2022-11-04T16:42:45;95.82;;;90.55;;
42296;SDS011;28985;47.456;19.016;2022-11-04T16:45:16;98.38;;;92.95;;
42296;SDS011;28985;47.456;19.016;2022-11-04T16:47:47;94.47;;;89.05;;
42296;SDS011;28985;47.456;19.016;2022-11-04T16:50:14;97.45;;;91.93;;
42296;SDS011;28985;47.456;19.016;2022-11-04T16:52:42;97.57;;;92.20;;
42296;SDS011;28985;47.456;19.016;2022-11-04T16:55:10;96.28;;;91.28;;
42296;SDS011;28985;47.456;19.016;2022-11-04T16:57:37;98.18;;;92.72;;
42296;SDS011;28985;47.456;19.016;2022-11-04T17:00:05;99.70;;;94.35;;